sensor_id;sensor_type;location;lat;lon;timestamp;pressure;altitude;pressure_sealevel;temperature;humidity
13705;BME280;6924;52.122;9.952;2023-04-26T00:00:24;100603.13;;;4.11;81.84
13705;BME280;6924;52.122;9.952;2023-04-26T00:02:53;100608.16;;;4.04;80.89
13705;BME280;6924;52.122;9.952;2023-04-26T00:05:20;100606.72;;;4.02;81.94
13705;BME280;6924;52.122;9.952;2023-04-26T00:07:46;100610.34;;;3.97;81.43
13705;BME280;6924;52.122;9.952;2023-04-26T00:10:14;100610.03;;;3.93;82.07
13705;BME280;6924;52.122;9.952;2023-04-26T00:12:42;100610.59;;;3.90;81.46
13705;BME280;6924;52.122;9.952;2023-04-26T00:15:09;100614.97;;;3.81;81.85
13705;BME280;6924;52.122;9.952;2023-04-26T00:17:36;100606.63;;;3.86;81.69
13705;BME280;6924;52.122;9.952;2023-04-26T00:20:03;100611.38;;;3.86;82.20
13705;BME280;6924;52.122;9.952;2023-04-26T00:22:31;100614.19;;;3.86;81.89
13705;BME280;6924;52.122;9.952;2023-04-26T00:24:58;100620.00;;;3.79;82.85
13705;BME280;6924;52.122;9.952;2023-04-26T00:27:24;100613.28;;;3.80;83.13
13705;BME280;6924;52.122;9.952;2023-04-26T00:29:52;100613.28;;;3.80;83.14
13705;BME280;6924;52.122;9.952;2023-04-26T00:32:18;100618.00;;;3.75;82.53
13705;BME280;6924;52.122;9.952;2023-04-26T00:34:45;100614.06;;;3.70;83.11
13705;BME280;6924;52.122;9.952;2023-04-26T00:37:11;100607.00;;;3.63;83.45
13705;BME280;6924;52.122;9.952;2023-04-26T00:39:38;100623.47;;;3.59;83.54
13705;BME280;6924;52.122;9.952;2023-04-26T00:42:04;100617.38;;;3.67;83.41
13705;BME280;6924;52.122;9.952;2023-04-26T00:44:31;100612.94;;;3.71;83.46
13705;BME280;6924;52.122;9.952;2023-04-26T00:46:59;100619.66;;;3.70;83.04
13705;BME280;6924;52.122;9.952;2023-04-26T00:49:25;100621.59;;;3.70;83.00
13705;BME280;6924;52.122;9.952;2023-04-26T00:51:52;100616.00;;;3.70;83.50
13705;BME280;6924;52.122;9.952;2023-04-26T00:54:20;100616.81;;;3.65;83.26
13705;BME280;6924;52.122;9.952;2023-04-26T00:56:47;100619.56;;;3.60;83.52
13705;BME280;6924;52.122;9.952;2023-04-26T00:59:16;100625.44;;;3.59;83.14
13705;BME280;6924;52.122;9.952;2023-04-26T01:01:43;100615.03;;;3.54;83.53
13705;BME280;6924;52.122;9.952;2023-04-26T01:04:11;100620.00;;;3.42;83.83
13705;BME280;6924;52.122;9.952;2023-04-26T01:06:39;100624.47;;;3.43;84.41
13705;BME280;6924;52.122;9.952;2023-04-26T01:09:06;100626.44;;;3.42;84.56
13705;BME280;6924;52.122;9.952;2023-04-26T01:11:35;100626.44;;;3.42;84.70
13705;BME280;6924;52.122;9.952;2023-04-26T01:14:03;100622.44;;;3.33;85.00
13705;BME280;6924;52.122;9.952;2023-04-26T01:16:30;100626.00;;;3.28;84.86
13705;BME280;6924;52.122;9.952;2023-04-26T01:19:06;100630.75;;;3.28;85.16
13705;BME280;6924;52.122;9.952;2023-04-26T01:21:35;100634.59;;;3.22;85.56
13705;BME280;6924;52.122;9.952;2023-04-26T01:24:03;100636.28;;;3.23;85.93
13705;BME280;6924;52.122;9.952;2023-04-26T01:26:30;100632.66;;;3.22;85.62
13705;BME280;6924;52.122;9.952;2023-04-26T01:28:56;100639.34;;;3.21;85.56
13705;BME280;6924;52.122;9.952;2023-04-26T01:31:23;100638.25;;;3.22;85.98
13705;BME280;6924;52.122;9.952;2023-04-26T01:33:49;100635.47;;;3.22;86.04
13705;BME280;6924;52.122;9.952;2023-04-26T01:36:16;100635.97;;;3.19;85.98
13705;BME280;6924;52.122;9.952;2023-04-26T01:38:43;100631.75;;;3.17;85.97
13705;BME280;6924;52.122;9.952;2023-04-26T01:41:11;100630.94;;;3.16;85.89
13705;BME280;6924;52.122;9.952;2023-04-26T01:43:38;100634.25;;;3.13;86.32
13705;BME280;6924;52.122;9.952;2023-04-26T01:46:04;100630.59;;;3.13;86.22
13705;BME280;6924;52.122;9.952;2023-04-26T01:48:30;100642.66;;;3.13;86.24
13705;BME280;6924;52.122;9.952;2023-04-26T01:50:57;100645.38;;;3.08;86.86
13705;BME280;6924;52.122;9.952;2023-04-26T01:53:23;100634.19;;;3.08;86.62
13705;BME280;6924;52.122;9.952;2023-04-26T01:55:50;100637.16;;;2.96;86.75
13705;BME280;6924;52.122;9.952;2023-04-26T01:58:17;100636.88;;;2.98;87.27
13705;BME280;6924;52.122;9.952;2023-04-26T02:00:44;100632.13;;;2.98;87.09
13705;BME280;6924;52.122;9.952;2023-04-26T02:03:10;100639.59;;;2.93;87.24
13705;BME280;6924;52.122;9.952;2023-04-26T02:05:37;100635.72;;;2.94;87.71
13705;BME280;6924;52.122;9.952;2023-04-26T02:08:03;100631.75;;;2.89;87.49
13705;BME280;6924;52.122;9.952;2023-04-26T02:10:30;100631.75;;;2.89;87.44
13705;BME280;6924;52.122;9.952;2023-04-26T02:12:56;100632.06;;;2.93;87.56
13705;BME280;6924;52.122;9.952;2023-04-26T02:15:24;100635.94;;;2.87;87.36
13705;BME280;6924;52.122;9.952;2023-04-26T02:17:51;100633.97;;;2.87;87.17
13705;BME280;6924;52.122;9.952;2023-04-26T02:20:18;100628.88;;;2.84;87.55
13705;BME280;6924;52.122;9.952;2023-04-26T02:22:44;100637.47;;;2.78;87.72
13705;BME280;6924;52.122;9.952;2023-04-26T02:25:10;100635.25;;;2.80;87.63
13705;BME280;6924;52.122;9.952;2023-04-26T02:27:37;100640.84;;;2.80;87.78
13705;BME280;6924;52.122;9.952;2023-04-26T02:30:05;100631.59;;;2.74;87.61
13705;BME280;6924;52.122;9.952;2023-04-26T02:32:32;100633.25;;;2.75;87.42
13705;BME280;6924;52.122;9.952;2023-04-26T02:34:59;100635.75;;;2.72;87.55
13705;BME280;6924;52.122;9.952;2023-04-26T02:37:26;100635.75;;;2.72;87.86
13705;BME280;6924;52.122;9.952;2023-04-26T02:39:52;100636.59;;;2.72;87.85
13705;BME280;6924;52.122;9.952;2023-04-26T02:42:18;100640.41;;;2.66;87.58
13705;BME280;6924;52.122;9.952;2023-04-26T02:44:45;100639.00;;;2.63;88.08
13705;BME280;6924;52.122;9.952;2023-04-26T02:47:11;100639.56;;;2.65;88.01
13705;BME280;6924;52.122;9.952;2023-04-26T02:49:39;100636.19;;;2.63;87.74
13705;BME280;6924;52.122;9.952;2023-04-26T02:52:06;100648.94;;;2.54;88.37
13705;BME280;6924;52.122;9.952;2023-04-26T02:54:32;100643.06;;;2.56;88.88
13705;BME280;6924;52.122;9.952;2023-04-26T02:56:59;100638.16;;;2.63;89.12
13705;BME280;6924;52.122;9.952;2023-04-26T02:59:25;100630.88;;;2.62;89.23
13705;BME280;6924;52.122;9.952;2023-04-26T03:01:52;100630.38;;;2.65;88.85
13705;BME280;6924;52.122;9.952;2023-04-26T03:04:18;100635.75;;;2.50;89.31
13705;BME280;6924;52.122;9.952;2023-04-26T03:06:46;100634.88;;;2.49;89.88
13705;BME280;6924;52.122;9.952;2023-04-26T03:09:13;100629.00;;;2.45;89.84
13705;BME280;6924;52.122;9.952;2023-04-26T03:11:39;100634.63;;;2.51;90.10
13705;BME280;6924;52.122;9.952;2023-04-26T03:14:06;100636.19;;;2.41;90.16
13705;BME280;6924;52.122;9.952;2023-04-26T03:16:40;100634.44;;;2.35;90.52
13705;BME280;6924;52.122;9.952;2023-04-26T03:19:06;100628.53;;;2.32;91.41
13705;BME280;6924;52.122;9.952;2023-04-26T03:21:33;100634.13;;;2.32;91.11
13705;BME280;6924;52.122;9.952;2023-04-26T03:24:01;100636.13;;;2.36;91.15
13705;BME280;6924;52.122;9.952;2023-04-26T03:26:28;100638.16;;;2.41;90.74
13705;BME280;6924;52.122;9.952;2023-04-26T03:28:54;100638.41;;;2.39;90.84
13705;BME280;6924;52.122;9.952;2023-04-26T03:31:21;100630.81;;;2.35;90.90
13705;BME280;6924;52.122;9.952;2023-04-26T03:33:48;100641.78;;;2.41;90.76
13705;BME280;6924;52.122;9.952;2023-04-26T03:36:14;100636.53;;;2.45;90.43
13705;BME280;6924;52.122;9.952;2023-04-26T03:38:41;100634.19;;;2.37;90.38
13705;BME280;6924;52.122;9.952;2023-04-26T03:41:09;100629.97;;;2.34;91.36
13705;BME280;6924;52.122;9.952;2023-04-26T03:43:35;100629.88;;;2.29;91.20
13705;BME280;6924;52.122;9.952;2023-04-26T03:46:02;100632.16;;;2.32;91.22
13705;BME280;6924;52.122;9.952;2023-04-26T03:48:28;100630.81;;;2.35;91.06
13705;BME280;6924;52.122;9.952;2023-04-26T03:50:55;100640.03;;;2.35;91.40
13705;BME280;6924;52.122;9.952;2023-04-26T03:53:21;100640.47;;;2.27;91.28
13705;BME280;6924;52.122;9.952;2023-04-26T03:55:47;100646.63;;;2.29;91.80
13705;BME280;6924;52.122;9.952;2023-04-26T03:58:15;100644.94;;;2.28;91.39
13705;BME280;6924;52.122;9.952;2023-04-26T04:00:42;100648.53;;;2.23;91.72
13705;BME280;6924;52.122;9.952;2023-04-26T04:03:08;100648.28;;;2.25;91.66
13705;BME280;6924;52.122;9.952;2023-04-26T04:05:35;100650.47;;;2.23;91.57
13705;BME280;6924;52.122;9.952;2023-04-26T04:08:01;100641.50;;;2.21;91.75
13705;BME280;6924;52.122;9.952;2023-04-26T04:10:28;100648.84;;;2.27;91.86
13705;BME280;6924;52.122;9.952;2023-04-26T04:12:54;100646.56;;;2.24;91.69
13705;BME280;6924;52.122;9.952;2023-04-26T04:15:22;100646.63;;;2.29;91.90
13705;BME280;6924;52.122;9.952;2023-04-26T04:17:48;100647.22;;;2.31;91.86
13705;BME280;6924;52.122;9.952;2023-04-26T04:20:15;100645.72;;;2.23;92.28
13705;BME280;6924;52.122;9.952;2023-04-26T04:22:42;100650.88;;;2.32;92.76
13705;BME280;6924;52.122;9.952;2023-04-26T04:25:09;100646.81;;;2.22;92.19
13705;BME280;6924;52.122;9.952;2023-04-26T04:27:36;100650.72;;;2.21;93.04
13705;BME280;6924;52.122;9.952;2023-04-26T04:30:04;100656.06;;;2.23;92.96
13705;BME280;6924;52.122;9.952;2023-04-26T04:32:33;100653.31;;;2.28;92.93
13705;BME280;6924;52.122;9.952;2023-04-26T04:34:59;100653.72;;;2.37;93.25
13705;BME280;6924;52.122;9.952;2023-04-26T04:37:26;100655.09;;;2.34;93.37
13705;BME280;6924;52.122;9.952;2023-04-26T04:39:52;100651.63;;;2.27;92.87
13705;BME280;6924;52.122;9.952;2023-04-26T04:42:19;100665.09;;;2.30;93.37
13705;BME280;6924;52.122;9.952;2023-04-26T04:44:45;100667.16;;;2.40;93.91
13705;BME280;6924;52.122;9.952;2023-04-26T04:47:12;100660.78;;;2.44;93.77
13705;BME280;6924;52.122;9.952;2023-04-26T04:49:40;100667.75;;;2.42;94.40
13705;BME280;6924;52.122;9.952;2023-04-26T04:52:07;100660.00;;;2.49;94.74
13705;BME280;6924;52.122;9.952;2023-04-26T04:54:33;100662.06;;;2.54;94.57
13705;BME280;6924;52.122;9.952;2023-04-26T04:57:00;100659.81;;;2.56;94.74
13705;BME280;6924;52.122;9.952;2023-04-26T04:59:27;100661.59;;;2.62;95.08
13705;BME280;6924;52.122;9.952;2023-04-26T05:01:53;100666.66;;;2.65;94.89
13705;BME280;6924;52.122;9.952;2023-04-26T05:04:20;100667.06;;;2.74;94.77
13705;BME280;6924;52.122;9.952;2023-04-26T05:06:48;100660.09;;;2.76;94.76
13705;BME280;6924;52.122;9.952;2023-04-26T05:09:15;100658.97;;;2.77;94.01
13705;BME280;6924;52.122;9.952;2023-04-26T05:11:42;100666.31;;;2.83;94.23
13705;BME280;6924;52.122;9.952;2023-04-26T05:14:08;100663.59;;;2.88;94.61
13705;BME280;6924;52.122;9.952;2023-04-26T05:16:34;100666.97;;;2.90;94.22
13705;BME280;6924;52.122;9.952;2023-04-26T05:19:02;100666.50;;;2.99;94.08
13705;BME280;6924;52.122;9.952;2023-04-26T05:21:28;100672.63;;;2.96;93.02
13705;BME280;6924;52.122;9.952;2023-04-26T05:23:57;100670.28;;;2.87;93.29
13705;BME280;6924;52.122;9.952;2023-04-26T05:26:23;100667.75;;;2.86;93.58
13705;BME280;6924;52.122;9.952;2023-04-26T05:28:49;100681.66;;;2.81;93.22
13705;BME280;6924;52.122;9.952;2023-04-26T05:31:16;100682.69;;;2.97;93.28
13705;BME280;6924;52.122;9.952;2023-04-26T05:33:42;100681.41;;;3.04;92.79
13705;BME280;6924;52.122;9.952;2023-04-26T05:36:09;100673.84;;;3.05;93.23
13705;BME280;6924;52.122;9.952;2023-04-26T05:38:35;100670.47;;;3.03;93.33
13705;BME280;6924;52.122;9.952;2023-04-26T05:41:03;100685.06;;;3.10;93.16
13705;BME280;6924;52.122;9.952;2023-04-26T05:43:30;100684.69;;;3.28;92.50
13705;BME280;6924;52.122;9.952;2023-04-26T05:45:56;100685.94;;;3.38;93.50
13705;BME280;6924;52.122;9.952;2023-04-26T05:48:23;100691.03;;;3.46;91.93
13705;BME280;6924;52.122;9.952;2023-04-26T05:50:50;100687.75;;;3.54;90.85
13705;BME280;6924;52.122;9.952;2023-04-26T05:53:17;100689.84;;;3.64;90.98
13705;BME280;6924;52.122;9.952;2023-04-26T05:55:44;100699.41;;;3.73;89.54
13705;BME280;6924;52.122;9.952;2023-04-26T05:58:12;100690.28;;;3.88;89.14
13705;BME280;6924;52.122;9.952;2023-04-26T06:00:38;100692.09;;;3.99;89.01
13705;BME280;6924;52.122;9.952;2023-04-26T06:03:05;100692.09;;;3.99;87.19
13705;BME280;6924;52.122;9.952;2023-04-26T06:05:32;100690.47;;;4.08;87.57
13705;BME280;6924;52.122;9.952;2023-04-26T06:07:58;100693.06;;;4.20;87.75
13705;BME280;6924;52.122;9.952;2023-04-26T06:10:26;100690.88;;;4.27;86.79
13705;BME280;6924;52.122;9.952;2023-04-26T06:12:52;100689.56;;;4.40;85.08
13705;BME280;6924;52.122;9.952;2023-04-26T06:15:20;100697.63;;;4.31;84.56
13705;BME280;6924;52.122;9.952;2023-04-26T06:17:46;100689.81;;;4.39;83.51
13705;BME280;6924;52.122;9.952;2023-04-26T06:20:13;100698.06;;;4.61;84.91
13705;BME280;6924;52.122;9.952;2023-04-26T06:22:39;100696.41;;;4.65;82.20
13705;BME280;6924;52.122;9.952;2023-04-26T06:25:07;100698.72;;;4.78;84.37
13705;BME280;6924;52.122;9.952;2023-04-26T06:27:33;100701.06;;;4.96;84.61
13705;BME280;6924;52.122;9.952;2023-04-26T06:30:00;100696.00;;;4.99;84.19
13705;BME280;6924;52.122;9.952;2023-04-26T06:32:27;100692.41;;;5.13;82.12
13705;BME280;6924;52.122;9.952;2023-04-26T06:34:54;100702.81;;;5.23;82.36
13705;BME280;6924;52.122;9.952;2023-04-26T06:37:21;100698.31;;;5.22;80.95
13705;BME280;6924;52.122;9.952;2023-04-26T06:39:47;100702.56;;;5.35;81.55
13705;BME280;6924;52.122;9.952;2023-04-26T06:42:13;100705.41;;;5.50;81.59
13705;BME280;6924;52.122;9.952;2023-04-26T06:44:40;100710.75;;;5.57;80.80
13705;BME280;6924;52.122;9.952;2023-04-26T06:47:07;100702.63;;;5.71;81.64
13705;BME280;6924;52.122;9.952;2023-04-26T06:49:37;100704.91;;;5.94;78.89
13705;BME280;6924;52.122;9.952;2023-04-26T06:52:03;100695.66;;;6.09;78.17
13705;BME280;6924;52.122;9.952;2023-04-26T06:54:31;100696.78;;;6.13;77.14
13705;BME280;6924;52.122;9.952;2023-04-26T06:56:57;100704.91;;;6.20;77.21
13705;BME280;6924;52.122;9.952;2023-04-26T06:59:24;100703.53;;;6.17;77.19
13705;BME280;6924;52.122;9.952;2023-04-26T07:01:51;100702.63;;;6.32;78.11
13705;BME280;6924;52.122;9.952;2023-04-26T07:04:18;100708.78;;;6.50;74.42
13705;BME280;6924;52.122;9.952;2023-04-26T07:06:46;100699.50;;;6.65;73.83
13705;BME280;6924;52.122;9.952;2023-04-26T07:09:12;100706.19;;;6.74;75.26
13705;BME280;6924;52.122;9.952;2023-04-26T07:11:38;100701.94;;;6.87;74.18
13705;BME280;6924;52.122;9.952;2023-04-26T07:14:05;100708.88;;;7.10;73.06
13705;BME280;6924;52.122;9.952;2023-04-26T07:16:32;100711.06;;;7.28;70.24
13705;BME280;6924;52.122;9.952;2023-04-26T07:18:58;100716.72;;;7.18;71.10
13705;BME280;6924;52.122;9.952;2023-04-26T07:21:25;100720.97;;;7.10;72.25
13705;BME280;6924;52.122;9.952;2023-04-26T07:23:53;100721.81;;;7.11;71.36
13705;BME280;6924;52.122;9.952;2023-04-26T07:26:20;100717.28;;;7.20;71.45
13705;BME280;6924;52.122;9.952;2023-04-26T07:28:47;100714.88;;;6.88;69.55
13705;BME280;6924;52.122;9.952;2023-04-26T07:31:13;100704.97;;;7.06;71.46
13705;BME280;6924;52.122;9.952;2023-04-26T07:33:40;100712.34;;;6.86;69.59
13705;BME280;6924;52.122;9.952;2023-04-26T07:36:08;100714.00;;;6.97;69.55
13705;BME280;6924;52.122;9.952;2023-04-26T07:38:34;100714.19;;;7.21;73.05
13705;BME280;6924;52.122;9.952;2023-04-26T07:41:02;100712.22;;;7.12;67.67
13705;BME280;6924;52.122;9.952;2023-04-26T07:43:30;100716.69;;;7.23;67.53
13705;BME280;6924;52.122;9.952;2023-04-26T07:45:58;100713.81;;;7.33;65.65
13705;BME280;6924;52.122;9.952;2023-04-26T07:48:25;100710.53;;;7.21;65.63
13705;BME280;6924;52.122;9.952;2023-04-26T07:50:51;100715.53;;;7.29;63.96
13705;BME280;6924;52.122;9.952;2023-04-26T07:53:18;100714.41;;;7.30;65.09
13705;BME280;6924;52.122;9.952;2023-04-26T07:55:44;100719.38;;;7.49;66.18
13705;BME280;6924;52.122;9.952;2023-04-26T07:58:12;100710.22;;;7.67;65.52
13705;BME280;6924;52.122;9.952;2023-04-26T08:00:39;100702.22;;;7.90;64.45
13705;BME280;6924;52.122;9.952;2023-04-26T08:03:05;100710.31;;;7.96;62.88
13705;BME280;6924;52.122;9.952;2023-04-26T08:05:32;100710.44;;;8.15;63.77
13705;BME280;6924;52.122;9.952;2023-04-26T08:07:58;100719.97;;;8.19;62.25
13705;BME280;6924;52.122;9.952;2023-04-26T08:10:25;100717.06;;;8.00;64.55
13705;BME280;6924;52.122;9.952;2023-04-26T08:12:52;100717.06;;;8.00;64.23
13705;BME280;6924;52.122;9.952;2023-04-26T08:15:20;100723.88;;;7.89;61.93
13705;BME280;6924;52.122;9.952;2023-04-26T08:17:46;100720.47;;;7.53;60.62
13705;BME280;6924;52.122;9.952;2023-04-26T08:20:17;100721.22;;;7.19;60.81
13705;BME280;6924;52.122;9.952;2023-04-26T08:22:43;100714.34;;;7.40;64.64
13705;BME280;6924;52.122;9.952;2023-04-26T08:25:10;100710.78;;;7.69;61.95
13705;BME280;6924;52.122;9.952;2023-04-26T08:27:36;100707.94;;;7.74;63.49
13705;BME280;6924;52.122;9.952;2023-04-26T08:30:05;100712.72;;;7.29;62.62
13705;BME280;6924;52.122;9.952;2023-04-26T08:32:33;100714.66;;;7.39;62.32
13705;BME280;6924;52.122;9.952;2023-04-26T08:34:59;100706.44;;;7.42;61.98
13705;BME280;6924;52.122;9.952;2023-04-26T08:37:26;100719.13;;;7.40;65.00
13705;BME280;6924;52.122;9.952;2023-04-26T08:39:53;100721.03;;;7.55;63.17
13705;BME280;6924;52.122;9.952;2023-04-26T08:42:19;100712.47;;;7.70;64.53
13705;BME280;6924;52.122;9.952;2023-04-26T08:44:50;100717.75;;;7.82;64.24
13705;BME280;6924;52.122;9.952;2023-04-26T08:47:21;100719.75;;;7.76;62.43
13705;BME280;6924;52.122;9.952;2023-04-26T08:49:53;100717.56;;;7.68;59.04
13705;BME280;6924;52.122;9.952;2023-04-26T08:52:26;100716.19;;;7.65;61.81
13705;BME280;6924;52.122;9.952;2023-04-26T08:54:53;100719.22;;;7.74;58.77
13705;BME280;6924;52.122;9.952;2023-04-26T08:57:23;100715.06;;;8.01;61.29
13705;BME280;6924;52.122;9.952;2023-04-26T08:59:49;100719.75;;;8.11;59.92
13705;BME280;6924;52.122;9.952;2023-04-26T09:02:18;100710.94;;;8.22;63.71
13705;BME280;6924;52.122;9.952;2023-04-26T09:04:44;100714.81;;;8.26;61.31
13705;BME280;6924;52.122;9.952;2023-04-26T09:07:19;100715.16;;;8.25;61.60
13705;BME280;6924;52.122;9.952;2023-04-26T09:09:47;100720.66;;;8.35;62.89
13705;BME280;6924;52.122;9.952;2023-04-26T09:12:17;100717.06;;;8.30;61.62
13705;BME280;6924;52.122;9.952;2023-04-26T09:14:45;100721.88;;;8.29;59.63
13705;BME280;6924;52.122;9.952;2023-04-26T09:17:27;100720.59;;;7.77;57.98
13705;BME280;6924;52.122;9.952;2023-04-26T09:19:55;100727.25;;;8.25;58.05
13705;BME280;6924;52.122;9.952;2023-04-26T09:22:30;100714.69;;;8.47;51.63
13705;BME280;6924;52.122;9.952;2023-04-26T09:24:57;100706.22;;;8.47;55.18
13705;BME280;6924;52.122;9.952;2023-04-26T09:27:34;100708.91;;;8.57;60.61
13705;BME280;6924;52.122;9.952;2023-04-26T09:30:06;100698.63;;;8.72;58.78
13705;BME280;6924;52.122;9.952;2023-04-26T09:32:45;100709.78;;;8.82;58.90
13705;BME280;6924;52.122;9.952;2023-04-26T09:35:24;100712.47;;;8.39;55.48
13705;BME280;6924;52.122;9.952;2023-04-26T09:37:57;100715.94;;;7.96;51.01
13705;BME280;6924;52.122;9.952;2023-04-26T09:40:25;100720.66;;;8.06;52.53
13705;BME280;6924;52.122;9.952;2023-04-26T09:42:59;100721.66;;;8.20;51.31
13705;BME280;6924;52.122;9.952;2023-04-26T09:45:27;100713.09;;;8.01;51.24
13705;BME280;6924;52.122;9.952;2023-04-26T09:47:54;100712.69;;;8.13;51.90
13705;BME280;6924;52.122;9.952;2023-04-26T09:50:26;100718.16;;;8.34;54.04
13705;BME280;6924;52.122;9.952;2023-04-26T09:52:54;100716.00;;;8.55;51.74
13705;BME280;6924;52.122;9.952;2023-04-26T09:55:25;100702.38;;;8.91;49.41
13705;BME280;6924;52.122;9.952;2023-04-26T09:57:52;100707.38;;;9.18;53.17
13705;BME280;6924;52.122;9.952;2023-04-26T10:00:18;100706.38;;;9.28;51.92
13705;BME280;6924;52.122;9.952;2023-04-26T10:02:45;100705.34;;;9.43;49.51
13705;BME280;6924;52.122;9.952;2023-04-26T10:05:12;100712.75;;;8.96;50.51
13705;BME280;6924;52.122;9.952;2023-04-26T10:07:39;100702.00;;;8.74;47.83
13705;BME280;6924;52.122;9.952;2023-04-26T10:10:09;100721.31;;;8.85;52.34
13705;BME280;6924;52.122;9.952;2023-04-26T10:12:39;100720.13;;;8.92;51.29
13705;BME280;6924;52.122;9.952;2023-04-26T10:15:08;100735.34;;;8.90;51.10
13705;BME280;6924;52.122;9.952;2023-04-26T10:17:35;100727.78;;;8.86;51.61
13705;BME280;6924;52.122;9.952;2023-04-26T10:20:03;100728.88;;;8.90;53.25
13705;BME280;6924;52.122;9.952;2023-04-26T10:22:35;100722.50;;;8.79;52.22
13705;BME280;6924;52.122;9.952;2023-04-26T10:25:08;100727.47;;;8.63;52.84
13705;BME280;6924;52.122;9.952;2023-04-26T10:27:49;100724.06;;;8.90;53.22
13705;BME280;6924;52.122;9.952;2023-04-26T10:30:18;100719.09;;;9.06;52.08
13705;BME280;6924;52.122;9.952;2023-04-26T10:33:12;100712.31;;;9.07;48.80
13705;BME280;6924;52.122;9.952;2023-04-26T10:36:10;100706.00;;;9.16;50.64
13705;BME280;6924;52.122;9.952;2023-04-26T10:38:38;100709.00;;;9.43;50.75
13705;BME280;6924;52.122;9.952;2023-04-26T10:41:29;100711.69;;;9.72;48.98
13705;BME280;6924;52.122;9.952;2023-04-26T10:43:57;100704.81;;;9.60;47.40
13705;BME280;6924;52.122;9.952;2023-04-26T10:46:37;100700.78;;;9.47;45.55
13705;BME280;6924;52.122;9.952;2023-04-26T10:49:17;100710.81;;;9.34;47.15
13705;BME280;6924;52.122;9.952;2023-04-26T10:52:08;100701.09;;;9.02;46.66
13705;BME280;6924;52.122;9.952;2023-04-26T10:54:48;100713.63;;;8.67;46.83
13705;BME280;6924;52.122;9.952;2023-04-26T10:57:17;100717.06;;;8.30;47.63
13705;BME280;6924;52.122;9.952;2023-04-26T11:03:03;100726.09;;;8.26;51.51
13705;BME280;6924;52.122;9.952;2023-04-26T11:05:38;100722.91;;;8.38;53.60
13705;BME280;6924;52.122;9.952;2023-04-26T11:08:08;100726.09;;;8.26;53.04
13705;BME280;6924;52.122;9.952;2023-04-26T11:10:40;100728.44;;;7.80;53.85
13705;BME280;6924;52.122;9.952;2023-04-26T11:13:08;100723.16;;;7.73;52.58
13705;BME280;6924;52.122;9.952;2023-04-26T11:15:35;100728.75;;;7.78;55.04
13705;BME280;6924;52.122;9.952;2023-04-26T11:18:02;100726.34;;;8.01;55.78
13705;BME280;6924;52.122;9.952;2023-04-26T11:20:29;100715.97;;;8.25;56.74
13705;BME280;6924;52.122;9.952;2023-04-26T11:22:56;100713.53;;;8.48;53.64
13705;BME280;6924;52.122;9.952;2023-04-26T11:25:24;100727.00;;;8.56;53.16
13705;BME280;6924;52.122;9.952;2023-04-26T11:27:56;100713.09;;;8.65;51.20
13705;BME280;6924;52.122;9.952;2023-04-26T11:30:23;100701.84;;;8.84;50.00
13705;BME280;6924;52.122;9.952;2023-04-26T11:32:50;100708.09;;;9.05;52.91
13705;BME280;6924;52.122;9.952;2023-04-26T11:35:16;100711.41;;;9.12;49.73
13705;BME280;6924;52.122;9.952;2023-04-26T11:37:44;100707.69;;;8.93;47.78
13705;BME280;6924;52.122;9.952;2023-04-26T11:40:11;100715.72;;;8.56;48.80
13705;BME280;6924;52.122;9.952;2023-04-26T11:42:37;100713.75;;;8.81;51.76
13705;BME280;6924;52.122;9.952;2023-04-26T11:45:05;100711.72;;;8.62;48.64
13705;BME280;6924;52.122;9.952;2023-04-26T11:47:34;100716.94;;;8.74;49.28
13705;BME280;6924;52.122;9.952;2023-04-26T11:50:01;100712.56;;;8.87;53.53
13705;BME280;6924;52.122;9.952;2023-04-26T11:52:28;100721.78;;;9.17;53.07
13705;BME280;6924;52.122;9.952;2023-04-26T11:55:00;100718.00;;;9.26;50.42
13705;BME280;6924;52.122;9.952;2023-04-26T11:57:29;100716.09;;;9.41;52.49
13705;BME280;6924;52.122;9.952;2023-04-26T12:00:06;100716.72;;;9.38;50.57
13705;BME280;6924;52.122;9.952;2023-04-26T12:02:36;100713.38;;;9.55;50.84
13705;BME280;6924;52.122;9.952;2023-04-26T12:05:03;100712.09;;;9.66;51.88
13705;BME280;6924;52.122;9.952;2023-04-26T12:07:33;100706.41;;;9.85;51.71
13705;BME280;6924;52.122;9.952;2023-04-26T12:10:13;100715.94;;;10.08;49.69
13705;BME280;6924;52.122;9.952;2023-04-26T12:12:43;100715.75;;;10.37;50.26
13705;BME280;6924;52.122;9.952;2023-04-26T12:15:10;100711.03;;;10.32;45.13
13705;BME280;6924;52.122;9.952;2023-04-26T12:17:38;100712.22;;;10.45;48.74
13705;BME280;6924;52.122;9.952;2023-04-26T12:20:08;100713.34;;;10.44;47.25
13705;BME280;6924;52.122;9.952;2023-04-26T12:22:35;100710.72;;;10.34;49.14
13705;BME280;6924;52.122;9.952;2023-04-26T12:25:05;100715.06;;;10.26;44.92
13705;BME280;6924;52.122;9.952;2023-04-26T12:27:32;100707.81;;;10.20;44.30
13705;BME280;6924;52.122;9.952;2023-04-26T12:29:59;100715.03;;;10.12;43.80
13705;BME280;6924;52.122;9.952;2023-04-26T12:32:26;100711.69;;;10.24;45.25
13705;BME280;6924;52.122;9.952;2023-04-26T12:34:53;100708.81;;;10.29;46.19
13705;BME280;6924;52.122;9.952;2023-04-26T12:37:20;100700.03;;;10.45;44.94
13705;BME280;6924;52.122;9.952;2023-04-26T12:39:46;100700.78;;;10.37;43.30
13705;BME280;6924;52.122;9.952;2023-04-26T12:42:13;100698.63;;;10.47;44.82
13705;BME280;6924;52.122;9.952;2023-04-26T12:44:39;100691.44;;;10.36;43.57
13705;BME280;6924;52.122;9.952;2023-04-26T12:47:06;100704.28;;;10.28;45.69
13705;BME280;6924;52.122;9.952;2023-04-26T12:49:32;100707.81;;;10.20;46.30
13705;BME280;6924;52.122;9.952;2023-04-26T12:52:00;100703.34;;;10.00;43.71
13705;BME280;6924;52.122;9.952;2023-04-26T12:54:26;100701.19;;;10.11;45.36
13705;BME280;6924;52.122;9.952;2023-04-26T12:56:53;100698.88;;;10.32;46.03
13705;BME280;6924;52.122;9.952;2023-04-26T12:59:19;100700.25;;;10.16;45.39
13705;BME280;6924;52.122;9.952;2023-04-26T13:01:46;100689.66;;;9.75;42.57
13705;BME280;6924;52.122;9.952;2023-04-26T13:04:12;100697.09;;;10.03;46.04
13705;BME280;6924;52.122;9.952;2023-04-26T13:06:39;100691.06;;;10.24;45.37
13705;BME280;6924;52.122;9.952;2023-04-26T13:09:07;100683.81;;;10.37;43.42
13705;BME280;6924;52.122;9.952;2023-04-26T13:11:33;100690.31;;;10.18;43.42
13705;BME280;6924;52.122;9.952;2023-04-26T13:14:00;100686.50;;;10.28;42.13
13705;BME280;6924;52.122;9.952;2023-04-26T13:16:26;100684.75;;;10.32;43.99